Terminal Aerodrome Forecast
Issued by NWS

Home | Current Version | Previous Version | Text Only | Print | Product List | Glossary On
Versions: 1 2 3 4 5 6 7 8 9 10 11 12 13 14 15 16 17
792
FTUS44 KLIX 290520
TAFMSY
TAF
KMSY 290520Z 2906/3006 32004KT P6SM FEW040
     FM290800 VRB05KT P6SM VCSH BKN090 BKN150
      TEMPO 2909/2912 2SM TSRA BKN040CB
     FM291500 22008KT P6SM BKN110
     FM292200 VRB06KT P6SM VCTS BKN080CB=

USA.gov is the U.S. government's official web portal to all federal, state and local government web resources and services.